sensor_id;sensor_type;location;lat;lon;timestamp;P1;durP1;ratioP1;P2;durP2;ratioP2
45893;SDS011;31603;51.148;16.932;2022-07-05T00:01:06;7.57;;;6.68;;
45893;SDS011;31603;51.148;16.932;2022-07-05T00:03:32;8.40;;;6.40;;
45893;SDS011;31603;51.148;16.932;2022-07-05T00:06:00;8.95;;;6.60;;
45893;SDS011;31603;51.148;16.932;2022-07-05T00:08:27;12.27;;;6.82;;
45893;SDS011;31603;51.148;16.932;2022-07-05T00:10:53;7.13;;;6.43;;
45893;SDS011;31603;51.148;16.932;2022-07-05T00:13:20;8.02;;;6.10;;
45893;SDS011;31603;51.148;16.932;2022-07-05T00:15:46;8.73;;;6.85;;
45893;SDS011;31603;51.148;16.932;2022-07-05T00:18:13;13.35;;;7.20;;
45893;SDS011;31603;51.148;16.932;2022-07-05T00:20:45;7.53;;;5.63;;
45893;SDS011;31603;51.148;16.932;2022-07-05T00:23:17;7.35;;;6.60;;
45893;SDS011;31603;51.148;16.932;2022-07-05T00:25:43;7.20;;;6.38;;
45893;SDS011;31603;51.148;16.932;2022-07-05T00:28:09;11.10;;;6.53;;
45893;SDS011;31603;51.148;16.932;2022-07-05T00:30:38;6.97;;;6.35;;
45893;SDS011;31603;51.148;16.932;2022-07-05T00:33:04;11.20;;;6.75;;
45893;SDS011;31603;51.148;16.932;2022-07-05T00:35:33;8.95;;;6.93;;
45893;SDS011;31603;51.148;16.932;2022-07-05T00:37:59;7.20;;;6.60;;
45893;SDS011;31603;51.148;16.932;2022-07-05T00:43:15;7.55;;;6.85;;
45893;SDS011;31603;51.148;16.932;2022-07-05T00:45:47;7.93;;;7.20;;
45893;SDS011;31603;51.148;16.932;2022-07-05T00:48:13;7.43;;;6.82;;
45893;SDS011;31603;51.148;16.932;2022-07-05T00:50:40;7.85;;;6.10;;
45893;SDS011;31603;51.148;16.932;2022-07-05T00:53:07;10.00;;;6.22;;
45893;SDS011;31603;51.148;16.932;2022-07-05T00:55:34;6.88;;;5.88;;
45893;SDS011;31603;51.148;16.932;2022-07-05T00:58:11;7.38;;;5.88;;
45893;SDS011;31603;51.148;16.932;2022-07-05T01:00:46;6.47;;;5.88;;
45893;SDS011;31603;51.148;16.932;2022-07-05T01:03:18;8.88;;;6.07;;
45893;SDS011;31603;51.148;16.932;2022-07-05T01:05:44;8.15;;;5.53;;
45893;SDS011;31603;51.148;16.932;2022-07-05T01:08:11;6.85;;;6.15;;
45893;SDS011;31603;51.148;16.932;2022-07-05T01:10:40;6.25;;;5.65;;
45893;SDS011;31603;51.148;16.932;2022-07-05T01:13:08;6.70;;;5.82;;
45893;SDS011;31603;51.148;16.932;2022-07-05T01:15:36;9.40;;;6.72;;
45893;SDS011;31603;51.148;16.932;2022-07-05T01:18:04;8.45;;;6.45;;
45893;SDS011;31603;51.148;16.932;2022-07-05T01:20:32;7.25;;;6.13;;
45893;SDS011;31603;51.148;16.932;2022-07-05T01:23:01;6.80;;;6.10;;
45893;SDS011;31603;51.148;16.932;2022-07-05T01:25:28;7.00;;;6.40;;
45893;SDS011;31603;51.148;16.932;2022-07-05T01:27:56;9.48;;;6.28;;
45893;SDS011;31603;51.148;16.932;2022-07-05T01:30:24;6.97;;;6.32;;
45893;SDS011;31603;51.148;16.932;2022-07-05T01:32:51;13.38;;;5.82;;
45893;SDS011;31603;51.148;16.932;2022-07-05T01:35:19;10.98;;;5.97;;
45893;SDS011;31603;51.148;16.932;2022-07-05T01:37:46;9.00;;;6.18;;
45893;SDS011;31603;51.148;16.932;2022-07-05T01:40:15;10.68;;;6.22;;
45893;SDS011;31603;51.148;16.932;2022-07-05T01:42:42;5.80;;;5.30;;
45893;SDS011;31603;51.148;16.932;2022-07-05T01:45:08;11.05;;;6.72;;
45893;SDS011;31603;51.148;16.932;2022-07-05T01:47:36;8.00;;;5.82;;
45893;SDS011;31603;51.148;16.932;2022-07-05T01:50:04;9.77;;;6.82;;
45893;SDS011;31603;51.148;16.932;2022-07-05T01:52:35;8.63;;;6.13;;
45893;SDS011;31603;51.148;16.932;2022-07-05T01:55:11;11.07;;;5.75;;
45893;SDS011;31603;51.148;16.932;2022-07-05T01:57:39;11.88;;;6.43;;
45893;SDS011;31603;51.148;16.932;2022-07-05T02:00:06;8.75;;;5.85;;
45893;SDS011;31603;51.148;16.932;2022-07-05T02:02:33;6.70;;;5.82;;
45893;SDS011;31603;51.148;16.932;2022-07-05T02:05:03;7.80;;;5.78;;
45893;SDS011;31603;51.148;16.932;2022-07-05T02:07:45;9.18;;;6.38;;
45893;SDS011;31603;51.148;16.932;2022-07-05T02:10:18;6.60;;;5.88;;
45893;SDS011;31603;51.148;16.932;2022-07-05T02:12:48;8.80;;;6.38;;
45893;SDS011;31603;51.148;16.932;2022-07-05T02:15:15;8.75;;;5.80;;
45893;SDS011;31603;51.148;16.932;2022-07-05T02:17:41;7.85;;;5.50;;
45893;SDS011;31603;51.148;16.932;2022-07-05T02:20:09;8.40;;;5.70;;
45893;SDS011;31603;51.148;16.932;2022-07-05T02:22:36;9.20;;;6.30;;
45893;SDS011;31603;51.148;16.932;2022-07-05T02:25:03;8.93;;;6.07;;
45893;SDS011;31603;51.148;16.932;2022-07-05T02:27:30;8.98;;;5.85;;
45893;SDS011;31603;51.148;16.932;2022-07-05T02:29:58;7.75;;;5.80;;
45893;SDS011;31603;51.148;16.932;2022-07-05T02:32:25;7.15;;;5.95;;
45893;SDS011;31603;51.148;16.932;2022-07-05T02:34:52;10.88;;;6.22;;
45893;SDS011;31603;51.148;16.932;2022-07-05T02:37:20;9.07;;;5.93;;
45893;SDS011;31603;51.148;16.932;2022-07-05T02:39:46;9.15;;;5.80;;
45893;SDS011;31603;51.148;16.932;2022-07-05T02:42:13;8.73;;;6.30;;
45893;SDS011;31603;51.148;16.932;2022-07-05T02:44:39;8.02;;;5.88;;
45893;SDS011;31603;51.148;16.932;2022-07-05T02:47:07;6.78;;;6.05;;
45893;SDS011;31603;51.148;16.932;2022-07-05T02:49:33;9.40;;;6.53;;
45893;SDS011;31603;51.148;16.932;2022-07-05T02:52:00;6.70;;;6.00;;
45893;SDS011;31603;51.148;16.932;2022-07-05T02:54:26;8.38;;;6.38;;
45893;SDS011;31603;51.148;16.932;2022-07-05T02:56:52;6.88;;;5.63;;
45893;SDS011;31603;51.148;16.932;2022-07-05T02:59:19;6.47;;;5.50;;
45893;SDS011;31603;51.148;16.932;2022-07-05T03:01:45;12.25;;;6.55;;
45893;SDS011;31603;51.148;16.932;2022-07-05T03:04:13;7.22;;;6.03;;
45893;SDS011;31603;51.148;16.932;2022-07-05T03:06:40;8.30;;;5.97;;
45893;SDS011;31603;51.148;16.932;2022-07-05T03:09:06;7.43;;;5.82;;
45893;SDS011;31603;51.148;16.932;2022-07-05T03:11:33;7.05;;;5.80;;
45893;SDS011;31603;51.148;16.932;2022-07-05T03:13:59;8.43;;;5.30;;
45893;SDS011;31603;51.148;16.932;2022-07-05T03:16:26;9.18;;;5.90;;
45893;SDS011;31603;51.148;16.932;2022-07-05T03:18:53;7.65;;;6.20;;
45893;SDS011;31603;51.148;16.932;2022-07-05T03:21:21;7.75;;;6.72;;
45893;SDS011;31603;51.148;16.932;2022-07-05T03:23:47;8.90;;;5.97;;
45893;SDS011;31603;51.148;16.932;2022-07-05T03:26:14;7.25;;;5.90;;
45893;SDS011;31603;51.148;16.932;2022-07-05T03:28:40;8.13;;;5.55;;
45893;SDS011;31603;51.148;16.932;2022-07-05T03:31:07;6.30;;;5.50;;
45893;SDS011;31603;51.148;16.932;2022-07-05T03:33:33;10.27;;;5.72;;
45893;SDS011;31603;51.148;16.932;2022-07-05T03:36:01;9.23;;;6.15;;
45893;SDS011;31603;51.148;16.932;2022-07-05T03:38:29;10.10;;;5.85;;
45893;SDS011;31603;51.148;16.932;2022-07-05T03:40:55;9.02;;;5.80;;
45893;SDS011;31603;51.148;16.932;2022-07-05T03:43:22;9.68;;;5.57;;
45893;SDS011;31603;51.148;16.932;2022-07-05T03:45:49;8.32;;;6.30;;
45893;SDS011;31603;51.148;16.932;2022-07-05T03:48:15;10.75;;;6.22;;
45893;SDS011;31603;51.148;16.932;2022-07-05T03:50:41;7.15;;;6.07;;
45893;SDS011;31603;51.148;16.932;2022-07-05T03:53:08;8.68;;;6.38;;
45893;SDS011;31603;51.148;16.932;2022-07-05T03:55:36;7.80;;;6.28;;
45893;SDS011;31603;51.148;16.932;2022-07-05T03:58:02;6.82;;;5.45;;
45893;SDS011;31603;51.148;16.932;2022-07-05T04:00:29;9.70;;;6.40;;
45893;SDS011;31603;51.148;16.932;2022-07-05T04:02:55;7.47;;;6.63;;
45893;SDS011;31603;51.148;16.932;2022-07-05T04:05:22;6.78;;;6.18;;
45893;SDS011;31603;51.148;16.932;2022-07-05T04:07:52;8.05;;;6.00;;
45893;SDS011;31603;51.148;16.932;2022-07-05T04:10:20;6.85;;;6.07;;
45893;SDS011;31603;51.148;16.932;2022-07-05T04:12:48;11.10;;;7.22;;
45893;SDS011;31603;51.148;16.932;2022-07-05T04:15:15;7.95;;;6.35;;
45893;SDS011;31603;51.148;16.932;2022-07-05T04:17:45;8.15;;;7.07;;
45893;SDS011;31603;51.148;16.932;2022-07-05T04:20:17;8.77;;;5.88;;
45893;SDS011;31603;51.148;16.932;2022-07-05T04:22:45;6.55;;;5.78;;
45893;SDS011;31603;51.148;16.932;2022-07-05T04:25:12;6.93;;;5.55;;
45893;SDS011;31603;51.148;16.932;2022-07-05T04:27:44;7.35;;;6.07;;
45893;SDS011;31603;51.148;16.932;2022-07-05T04:30:13;9.65;;;6.68;;
45893;SDS011;31603;51.148;16.932;2022-07-05T04:32:42;13.25;;;7.00;;
45893;SDS011;31603;51.148;16.932;2022-07-05T04:35:10;10.65;;;6.68;;
45893;SDS011;31603;51.148;16.932;2022-07-05T04:37:40;8.85;;;6.63;;
45893;SDS011;31603;51.148;16.932;2022-07-05T04:40:08;8.00;;;7.03;;
45893;SDS011;31603;51.148;16.932;2022-07-05T04:42:36;9.38;;;6.90;;
45893;SDS011;31603;51.148;16.932;2022-07-05T04:45:03;10.15;;;7.15;;
45893;SDS011;31603;51.148;16.932;2022-07-05T04:47:32;9.95;;;8.57;;
45893;SDS011;31603;51.148;16.932;2022-07-05T04:50:00;10.27;;;8.65;;
45893;SDS011;31603;51.148;16.932;2022-07-05T04:52:27;12.57;;;8.80;;
45893;SDS011;31603;51.148;16.932;2022-07-05T04:54:55;11.45;;;8.15;;
45893;SDS011;31603;51.148;16.932;2022-07-05T04:57:22;9.60;;;8.05;;
45893;SDS011;31603;51.148;16.932;2022-07-05T04:59:48;12.65;;;9.57;;
45893;SDS011;31603;51.148;16.932;2022-07-05T05:02:15;11.80;;;9.98;;
45893;SDS011;31603;51.148;16.932;2022-07-05T05:04:42;9.70;;;8.10;;
45893;SDS011;31603;51.148;16.932;2022-07-05T05:09:39;9.45;;;8.55;;
45893;SDS011;31603;51.148;16.932;2022-07-05T05:12:06;12.70;;;10.30;;
45893;SDS011;31603;51.148;16.932;2022-07-05T05:14:33;10.23;;;9.13;;
45893;SDS011;31603;51.148;16.932;2022-07-05T05:17:13;12.45;;;9.60;;
45893;SDS011;31603;51.148;16.932;2022-07-05T05:19:40;10.80;;;8.85;;
45893;SDS011;31603;51.148;16.932;2022-07-05T05:22:08;14.52;;;9.43;;
45893;SDS011;31603;51.148;16.932;2022-07-05T05:24:34;10.57;;;9.13;;
45893;SDS011;31603;51.148;16.932;2022-07-05T05:27:01;12.85;;;10.10;;
45893;SDS011;31603;51.148;16.932;2022-07-05T05:29:27;10.65;;;7.82;;
45893;SDS011;31603;51.148;16.932;2022-07-05T05:31:54;14.75;;;7.97;;
45893;SDS011;31603;51.148;16.932;2022-07-05T05:34:20;9.75;;;8.75;;
45893;SDS011;31603;51.148;16.932;2022-07-05T05:36:47;11.93;;;9.48;;
45893;SDS011;31603;51.148;16.932;2022-07-05T05:39:15;9.32;;;8.40;;
45893;SDS011;31603;51.148;16.932;2022-07-05T05:41:41;11.32;;;9.32;;
45893;SDS011;31603;51.148;16.932;2022-07-05T05:44:07;10.75;;;8.55;;
45893;SDS011;31603;51.148;16.932;2022-07-05T05:46:35;8.77;;;7.57;;
45893;SDS011;31603;51.148;16.932;2022-07-05T05:49:02;10.05;;;8.40;;
45893;SDS011;31603;51.148;16.932;2022-07-05T05:51:28;10.98;;;8.70;;
45893;SDS011;31603;51.148;16.932;2022-07-05T05:53:55;8.73;;;7.78;;
45893;SDS011;31603;51.148;16.932;2022-07-05T05:56:23;8.35;;;7.55;;
45893;SDS011;31603;51.148;16.932;2022-07-05T05:58:53;10.23;;;7.80;;
45893;SDS011;31603;51.148;16.932;2022-07-05T06:01:23;9.18;;;8.20;;
45893;SDS011;31603;51.148;16.932;2022-07-05T06:03:52;11.48;;;8.00;;
45893;SDS011;31603;51.148;16.932;2022-07-05T06:06:20;10.85;;;8.98;;
45893;SDS011;31603;51.148;16.932;2022-07-05T06:08:47;7.88;;;6.95;;
45893;SDS011;31603;51.148;16.932;2022-07-05T06:11:13;9.10;;;7.88;;
45893;SDS011;31603;51.148;16.932;2022-07-05T06:13:45;7.93;;;7.13;;
45893;SDS011;31603;51.148;16.932;2022-07-05T06:16:12;7.97;;;7.18;;
45893;SDS011;31603;51.148;16.932;2022-07-05T06:18:38;10.23;;;7.95;;
45893;SDS011;31603;51.148;16.932;2022-07-05T06:21:05;8.18;;;7.32;;
45893;SDS011;31603;51.148;16.932;2022-07-05T06:23:35;10.23;;;8.50;;
45893;SDS011;31603;51.148;16.932;2022-07-05T06:26:05;8.55;;;7.70;;
45893;SDS011;31603;51.148;16.932;2022-07-05T06:28:33;8.30;;;7.43;;
45893;SDS011;31603;51.148;16.932;2022-07-05T06:31:01;10.27;;;7.88;;
45893;SDS011;31603;51.148;16.932;2022-07-05T06:33:28;8.85;;;7.88;;
45893;SDS011;31603;51.148;16.932;2022-07-05T06:35:56;10.27;;;8.38;;
45893;SDS011;31603;51.148;16.932;2022-07-05T06:38:23;10.15;;;8.75;;
45893;SDS011;31603;51.148;16.932;2022-07-05T06:40:49;9.32;;;8.18;;
45893;SDS011;31603;51.148;16.932;2022-07-05T06:43:16;10.90;;;9.00;;
45893;SDS011;31603;51.148;16.932;2022-07-05T06:45:42;9.00;;;7.95;;
45893;SDS011;31603;51.148;16.932;2022-07-05T06:48:12;12.23;;;8.32;;
45893;SDS011;31603;51.148;16.932;2022-07-05T06:50:39;9.20;;;8.30;;
45893;SDS011;31603;51.148;16.932;2022-07-05T06:53:07;10.77;;;9.73;;
45893;SDS011;31603;51.148;16.932;2022-07-05T06:55:35;12.05;;;8.85;;
45893;SDS011;31603;51.148;16.932;2022-07-05T06:58:02;22.90;;;9.55;;
45893;SDS011;31603;51.148;16.932;2022-07-05T07:00:30;17.23;;;9.23;;
45893;SDS011;31603;51.148;16.932;2022-07-05T07:02:57;14.35;;;9.77;;
45893;SDS011;31603;51.148;16.932;2022-07-05T07:05:25;11.93;;;9.20;;
45893;SDS011;31603;51.148;16.932;2022-07-05T07:07:53;10.73;;;9.63;;
45893;SDS011;31603;51.148;16.932;2022-07-05T07:10:37;9.43;;;8.43;;
45893;SDS011;31603;51.148;16.932;2022-07-05T07:13:04;9.13;;;8.20;;
45893;SDS011;31603;51.148;16.932;2022-07-05T07:15:31;10.23;;;9.13;;
45893;SDS011;31603;51.148;16.932;2022-07-05T07:17:58;12.10;;;9.68;;
45893;SDS011;31603;51.148;16.932;2022-07-05T07:20:26;10.10;;;9.10;;
45893;SDS011;31603;51.148;16.932;2022-07-05T07:22:53;11.80;;;8.70;;
45893;SDS011;31603;51.148;16.932;2022-07-05T07:25:21;9.38;;;8.35;;
45893;SDS011;31603;51.148;16.932;2022-07-05T07:27:52;14.77;;;10.90;;
45893;SDS011;31603;51.148;16.932;2022-07-05T07:30:20;13.13;;;11.82;;
45893;SDS011;31603;51.148;16.932;2022-07-05T07:32:47;14.95;;;10.48;;
45893;SDS011;31603;51.148;16.932;2022-07-05T07:35:14;12.80;;;10.52;;
45893;SDS011;31603;51.148;16.932;2022-07-05T07:37:46;13.88;;;10.45;;
45893;SDS011;31603;51.148;16.932;2022-07-05T07:40:13;12.45;;;11.15;;
45893;SDS011;31603;51.148;16.932;2022-07-05T07:42:39;14.68;;;12.18;;
45893;SDS011;31603;51.148;16.932;2022-07-05T07:45:06;11.35;;;9.68;;
45893;SDS011;31603;51.148;16.932;2022-07-05T07:47:34;8.98;;;7.57;;
45893;SDS011;31603;51.148;16.932;2022-07-05T07:50:01;8.05;;;7.25;;
45893;SDS011;31603;51.148;16.932;2022-07-05T07:52:30;8.68;;;7.28;;
45893;SDS011;31603;51.148;16.932;2022-07-05T07:54:59;11.00;;;8.30;;
45893;SDS011;31603;51.148;16.932;2022-07-05T07:57:28;7.10;;;6.38;;
45893;SDS011;31603;51.148;16.932;2022-07-05T07:59:56;7.68;;;5.60;;
45893;SDS011;31603;51.148;16.932;2022-07-05T08:02:24;10.02;;;7.03;;
45893;SDS011;31603;51.148;16.932;2022-07-05T08:04:50;9.02;;;5.90;;
45893;SDS011;31603;51.148;16.932;2022-07-05T08:07:17;12.35;;;6.15;;
45893;SDS011;31603;51.148;16.932;2022-07-05T08:09:44;9.10;;;6.32;;
45893;SDS011;31603;51.148;16.932;2022-07-05T08:12:12;7.80;;;5.70;;
45893;SDS011;31603;51.148;16.932;2022-07-05T08:14:39;7.90;;;6.30;;
45893;SDS011;31603;51.148;16.932;2022-07-05T08:17:05;7.50;;;5.80;;
45893;SDS011;31603;51.148;16.932;2022-07-05T08:19:33;5.88;;;5.35;;
45893;SDS011;31603;51.148;16.932;2022-07-05T08:22:18;9.00;;;5.80;;
45893;SDS011;31603;51.148;16.932;2022-07-05T08:24:44;5.88;;;4.32;;
45893;SDS011;31603;51.148;16.932;2022-07-05T08:27:15;6.97;;;5.75;;
45893;SDS011;31603;51.148;16.932;2022-07-05T08:29:41;10.60;;;7.40;;
45893;SDS011;31603;51.148;16.932;2022-07-05T08:32:08;7.68;;;6.72;;
45893;SDS011;31603;51.148;16.932;2022-07-05T08:34:35;7.70;;;6.63;;
45893;SDS011;31603;51.148;16.932;2022-07-05T08:37:02;7.70;;;5.82;;
45893;SDS011;31603;51.148;16.932;2022-07-05T08:39:29;7.45;;;5.53;;
45893;SDS011;31603;51.148;16.932;2022-07-05T08:41:56;6.22;;;5.63;;
45893;SDS011;31603;51.148;16.932;2022-07-05T08:44:26;6.57;;;5.15;;
45893;SDS011;31603;51.148;16.932;2022-07-05T08:46:55;6.75;;;5.00;;
45893;SDS011;31603;51.148;16.932;2022-07-05T08:49:23;5.25;;;4.72;;
45893;SDS011;31603;51.148;16.932;2022-07-05T08:51:51;4.68;;;4.05;;
45893;SDS011;31603;51.148;16.932;2022-07-05T08:54:18;5.50;;;3.80;;
45893;SDS011;31603;51.148;16.932;2022-07-05T08:56:45;6.68;;;4.28;;
45893;SDS011;31603;51.148;16.932;2022-07-05T08:59:12;6.18;;;4.78;;
45893;SDS011;31603;51.148;16.932;2022-07-05T09:01:40;5.78;;;4.40;;
45893;SDS011;31603;51.148;16.932;2022-07-05T09:04:11;5.10;;;4.40;;
45893;SDS011;31603;51.148;16.932;2022-07-05T09:06:39;4.47;;;3.80;;
45893;SDS011;31603;51.148;16.932;2022-07-05T09:09:06;6.18;;;4.40;;
45893;SDS011;31603;51.148;16.932;2022-07-05T09:11:34;6.07;;;4.35;;
45893;SDS011;31603;51.148;16.932;2022-07-05T09:14:06;5.88;;;4.50;;
45893;SDS011;31603;51.148;16.932;2022-07-05T09:16:47;6.13;;;4.38;;
45893;SDS011;31603;51.148;16.932;2022-07-05T09:19:14;9.55;;;5.32;;
45893;SDS011;31603;51.148;16.932;2022-07-05T09:21:41;7.35;;;4.95;;
45893;SDS011;31603;51.148;16.932;2022-07-05T09:24:08;7.28;;;5.35;;
45893;SDS011;31603;51.148;16.932;2022-07-05T09:26:36;5.13;;;4.60;;
45893;SDS011;31603;51.148;16.932;2022-07-05T09:29:06;5.82;;;4.38;;
45893;SDS011;31603;51.148;16.932;2022-07-05T09:31:34;5.47;;;4.97;;
45893;SDS011;31603;51.148;16.932;2022-07-05T09:34:06;4.28;;;3.88;;
45893;SDS011;31603;51.148;16.932;2022-07-05T09:39:39;8.15;;;5.65;;
45893;SDS011;31603;51.148;16.932;2022-07-05T09:42:09;5.47;;;4.10;;
45893;SDS011;31603;51.148;16.932;2022-07-05T09:44:37;7.32;;;4.65;;
45893;SDS011;31603;51.148;16.932;2022-07-05T09:47:06;7.50;;;4.68;;
45893;SDS011;31603;51.148;16.932;2022-07-05T09:49:37;6.90;;;4.70;;
45893;SDS011;31603;51.148;16.932;2022-07-05T09:52:08;6.35;;;5.35;;
45893;SDS011;31603;51.148;16.932;2022-07-05T09:54:34;5.25;;;4.20;;
45893;SDS011;31603;51.148;16.932;2022-07-05T09:57:02;5.78;;;4.95;;
45893;SDS011;31603;51.148;16.932;2022-07-05T09:59:29;6.65;;;5.60;;
45893;SDS011;31603;51.148;16.932;2022-07-05T10:01:56;7.65;;;5.40;;
45893;SDS011;31603;51.148;16.932;2022-07-05T10:04:22;6.05;;;4.20;;
45893;SDS011;31603;51.148;16.932;2022-07-05T10:06:50;9.35;;;4.95;;
45893;SDS011;31603;51.148;16.932;2022-07-05T10:09:19;7.05;;;4.78;;
45893;SDS011;31603;51.148;16.932;2022-07-05T10:11:46;7.93;;;4.95;;
45893;SDS011;31603;51.148;16.932;2022-07-05T10:14:17;6.25;;;5.03;;
45893;SDS011;31603;51.148;16.932;2022-07-05T10:19:28;5.85;;;3.95;;
45893;SDS011;31603;51.148;16.932;2022-07-05T10:22:00;6.03;;;4.03;;
45893;SDS011;31603;51.148;16.932;2022-07-05T10:24:30;5.10;;;4.60;;
45893;SDS011;31603;51.148;16.932;2022-07-05T10:27:05;5.57;;;5.03;;
45893;SDS011;31603;51.148;16.932;2022-07-05T10:29:35;4.35;;;4.05;;
45893;SDS011;31603;51.148;16.932;2022-07-05T10:32:03;4.63;;;3.92;;
45893;SDS011;31603;51.148;16.932;2022-07-05T10:34:33;5.28;;;4.57;;
45893;SDS011;31603;51.148;16.932;2022-07-05T10:37:03;4.47;;;3.78;;
45893;SDS011;31603;51.148;16.932;2022-07-05T10:39:37;4.25;;;3.63;;
45893;SDS011;31603;51.148;16.932;2022-07-05T10:42:04;4.57;;;3.35;;
45893;SDS011;31603;51.148;16.932;2022-07-05T10:44:33;4.03;;;3.58;;
45893;SDS011;31603;51.148;16.932;2022-07-05T10:47:06;3.80;;;3.40;;
45893;SDS011;31603;51.148;16.932;2022-07-05T10:49:35;5.00;;;3.17;;
45893;SDS011;31603;51.148;16.932;2022-07-05T10:52:04;3.75;;;3.05;;
45893;SDS011;31603;51.148;16.932;2022-07-05T10:57:44;3.75;;;3.00;;
45893;SDS011;31603;51.148;16.932;2022-07-05T11:00:31;4.15;;;2.83;;
45893;SDS011;31603;51.148;16.932;2022-07-05T11:03:05;4.15;;;3.28;;
45893;SDS011;31603;51.148;16.932;2022-07-05T11:05:32;4.43;;;3.10;;
45893;SDS011;31603;51.148;16.932;2022-07-05T11:08:02;3.60;;;3.30;;
45893;SDS011;31603;51.148;16.932;2022-07-05T11:10:30;3.58;;;3.08;;
45893;SDS011;31603;51.148;16.932;2022-07-05T11:12:57;5.57;;;3.67;;
45893;SDS011;31603;51.148;16.932;2022-07-05T11:15:24;4.05;;;3.13;;
45893;SDS011;31603;51.148;16.932;2022-07-05T11:17:57;4.15;;;3.70;;
45893;SDS011;31603;51.148;16.932;2022-07-05T11:20:40;4.93;;;3.40;;
45893;SDS011;31603;51.148;16.932;2022-07-05T11:23:09;3.72;;;3.15;;
45893;SDS011;31603;51.148;16.932;2022-07-05T11:25:37;4.05;;;3.65;;
45893;SDS011;31603;51.148;16.932;2022-07-05T11:28:07;4.10;;;3.40;;
45893;SDS011;31603;51.148;16.932;2022-07-05T11:30:44;4.38;;;3.90;;
45893;SDS011;31603;51.148;16.932;2022-07-05T11:33:28;3.55;;;3.22;;
45893;SDS011;31603;51.148;16.932;2022-07-05T11:36:00;4.88;;;3.65;;
45893;SDS011;31603;51.148;16.932;2022-07-05T11:38:30;4.13;;;3.35;;
45893;SDS011;31603;51.148;16.932;2022-07-05T11:41:10;3.40;;;3.10;;
45893;SDS011;31603;51.148;16.932;2022-07-05T11:43:38;4.05;;;2.97;;
45893;SDS011;31603;51.148;16.932;2022-07-05T11:46:06;5.10;;;2.75;;
45893;SDS011;31603;51.148;16.932;2022-07-05T11:48:33;4.88;;;2.85;;
45893;SDS011;31603;51.148;16.932;2022-07-05T11:51:08;3.65;;;2.30;;
45893;SDS011;31603;51.148;16.932;2022-07-05T11:53:40;3.90;;;1.95;;
45893;SDS011;31603;51.148;16.932;2022-07-05T11:56:08;4.35;;;1.73;;
45893;SDS011;31603;51.148;16.932;2022-07-05T11:58:35;2.08;;;1.60;;
45893;SDS011;31603;51.148;16.932;2022-07-05T12:01:02;6.03;;;2.05;;
45893;SDS011;31603;51.148;16.932;2022-07-05T12:03:28;4.13;;;2.13;;
45893;SDS011;31603;51.148;16.932;2022-07-05T12:05:55;2.33;;;2.13;;
45893;SDS011;31603;51.148;16.932;2022-07-05T12:08:21;2.47;;;1.92;;
45893;SDS011;31603;51.148;16.932;2022-07-05T12:10:53;2.53;;;1.90;;
45893;SDS011;31603;51.148;16.932;2022-07-05T12:13:43;3.72;;;2.10;;
45893;SDS011;31603;51.148;16.932;2022-07-05T12:16:11;1.90;;;1.70;;
45893;SDS011;31603;51.148;16.932;2022-07-05T12:18:48;1.67;;;1.50;;
45893;SDS011;31603;51.148;16.932;2022-07-05T12:21:16;3.70;;;2.45;;
45893;SDS011;31603;51.148;16.932;2022-07-05T12:23:45;4.75;;;2.20;;
45893;SDS011;31603;51.148;16.932;2022-07-05T12:26:15;4.43;;;1.63;;
45893;SDS011;31603;51.148;16.932;2022-07-05T12:28:42;3.25;;;1.85;;
45893;SDS011;31603;51.148;16.932;2022-07-05T12:31:20;2.47;;;1.70;;
45893;SDS011;31603;51.148;16.932;2022-07-05T12:33:48;1.95;;;1.63;;
45893;SDS011;31603;51.148;16.932;2022-07-05T12:36:16;3.53;;;1.98;;
45893;SDS011;31603;51.148;16.932;2022-07-05T12:38:44;2.40;;;1.80;;
45893;SDS011;31603;51.148;16.932;2022-07-05T12:41:11;2.08;;;1.70;;
45893;SDS011;31603;51.148;16.932;2022-07-05T12:43:51;1.90;;;1.48;;
45893;SDS011;31603;51.148;16.932;2022-07-05T12:46:34;2.03;;;1.42;;
45893;SDS011;31603;51.148;16.932;2022-07-05T12:49:16;3.55;;;1.77;;
45893;SDS011;31603;51.148;16.932;2022-07-05T12:51:48;3.10;;;1.48;;
45893;SDS011;31603;51.148;16.932;2022-07-05T12:54:18;2.35;;;1.67;;
45893;SDS011;31603;51.148;16.932;2022-07-05T12:57:03;2.03;;;1.80;;
45893;SDS011;31603;51.148;16.932;2022-07-05T12:59:59;5.10;;;1.65;;
45893;SDS011;31603;51.148;16.932;2022-07-05T13:02:35;3.55;;;1.73;;
45893;SDS011;31603;51.148;16.932;2022-07-05T13:05:03;1.90;;;1.27;;
45893;SDS011;31603;51.148;16.932;2022-07-05T13:07:33;2.47;;;1.52;;
45893;SDS011;31603;51.148;16.932;2022-07-05T13:10:14;2.90;;;1.50;;
45893;SDS011;31603;51.148;16.932;2022-07-05T13:12:44;2.38;;;1.50;;
45893;SDS011;31603;51.148;16.932;2022-07-05T13:15:13;2.20;;;1.45;;
45893;SDS011;31603;51.148;16.932;2022-07-05T13:17:44;2.08;;;1.60;;
45893;SDS011;31603;51.148;16.932;2022-07-05T13:20:13;2.97;;;1.70;;
45893;SDS011;31603;51.148;16.932;2022-07-05T13:22:40;3.45;;;1.30;;
45893;SDS011;31603;51.148;16.932;2022-07-05T13:25:07;4.20;;;2.03;;
45893;SDS011;31603;51.148;16.932;2022-07-05T13:27:33;2.35;;;1.52;;
45893;SDS011;31603;51.148;16.932;2022-07-05T13:30:05;2.22;;;1.42;;
45893;SDS011;31603;51.148;16.932;2022-07-05T13:32:33;2.63;;;1.23;;
45893;SDS011;31603;51.148;16.932;2022-07-05T13:35:02;4.10;;;2.63;;
45893;SDS011;31603;51.148;16.932;2022-07-05T13:37:28;6.15;;;1.98;;
45893;SDS011;31603;51.148;16.932;2022-07-05T13:39:55;2.40;;;1.63;;
45893;SDS011;31603;51.148;16.932;2022-07-05T13:42:21;2.60;;;1.60;;
45893;SDS011;31603;51.148;16.932;2022-07-05T13:44:48;2.13;;;1.63;;
45893;SDS011;31603;51.148;16.932;2022-07-05T13:47:14;3.08;;;1.50;;
45893;SDS011;31603;51.148;16.932;2022-07-05T13:49:44;4.55;;;1.95;;
45893;SDS011;31603;51.148;16.932;2022-07-05T13:52:12;2.15;;;1.45;;
45893;SDS011;31603;51.148;16.932;2022-07-05T13:54:39;2.55;;;1.70;;
45893;SDS011;31603;51.148;16.932;2022-07-05T13:57:07;2.47;;;1.80;;
45893;SDS011;31603;51.148;16.932;2022-07-05T13:59:35;3.00;;;1.40;;
45893;SDS011;31603;51.148;16.932;2022-07-05T14:02:03;2.97;;;1.73;;
45893;SDS011;31603;51.148;16.932;2022-07-05T14:04:32;2.25;;;1.60;;
45893;SDS011;31603;51.148;16.932;2022-07-05T14:07:04;2.05;;;1.35;;
45893;SDS011;31603;51.148;16.932;2022-07-05T14:09:30;2.80;;;1.40;;
45893;SDS011;31603;51.148;16.932;2022-07-05T14:14:38;1.88;;;1.27;;
45893;SDS011;31603;51.148;16.932;2022-07-05T14:17:05;1.67;;;1.40;;
45893;SDS011;31603;51.148;16.932;2022-07-05T14:19:31;2.33;;;1.40;;
45893;SDS011;31603;51.148;16.932;2022-07-05T14:21:58;2.13;;;1.30;;
45893;SDS011;31603;51.148;16.932;2022-07-05T14:24:28;1.70;;;1.55;;
45893;SDS011;31603;51.148;16.932;2022-07-05T14:26:55;1.50;;;1.40;;
45893;SDS011;31603;51.148;16.932;2022-07-05T14:29:23;4.57;;;1.77;;
45893;SDS011;31603;51.148;16.932;2022-07-05T14:31:50;2.22;;;1.40;;
45893;SDS011;31603;51.148;16.932;2022-07-05T14:34:20;3.05;;;1.65;;
45893;SDS011;31603;51.148;16.932;2022-07-05T14:36:46;2.47;;;1.52;;
45893;SDS011;31603;51.148;16.932;2022-07-05T14:39:13;2.13;;;1.48;;
45893;SDS011;31603;51.148;16.932;2022-07-05T14:41:41;1.60;;;1.40;;
45893;SDS011;31603;51.148;16.932;2022-07-05T14:44:08;2.67;;;1.60;;
45893;SDS011;31603;51.148;16.932;2022-07-05T14:46:34;3.05;;;1.83;;
45893;SDS011;31603;51.148;16.932;2022-07-05T14:49:01;2.97;;;1.40;;
45893;SDS011;31603;51.148;16.932;2022-07-05T14:51:28;2.35;;;1.42;;
45893;SDS011;31603;51.148;16.932;2022-07-05T14:53:54;3.47;;;2.08;;
45893;SDS011;31603;51.148;16.932;2022-07-05T14:56:20;2.25;;;1.48;;